Time;durP1;ratioP1;P1;durP2;ratioP2;P2;SDS_P1;SDS_P2;PMS_P1;PMS_P2;Temp;Humidity;BMP_temperature;BMP_pressure;BME280_temperature;BME280_humidity;BME280_pressure;Samples;Min_cycle;Max_cycle;Signal;HPM_P1;HPM_P2
2022/05/12 00:00:20;;;;;;;9.03;4.83;;;13.70;99.90;;;;;;5130290;27;20245;-69
2022/05/12 00:02:48;;;;;;;11.93;4.73;;;13.80;99.90;;;;;;5126094;27;20244;-69
2022/05/12 00:05:18;;;;;;;9.37;4.10;;;13.80;99.90;;;;;;5132238;27;20228;-68
2022/05/12 00:07:47;;;;;;;10.90;4.87;;;13.80;99.90;;;;;;5121529;27;20233;-69
2022/05/12 00:10:18;;;;;;;8.83;4.00;;;13.80;99.90;;;;;;5130328;27;20237;-69
2022/05/12 00:12:47;;;;;;;11.43;4.00;;;13.80;99.90;;;;;;5125636;27;20304;-69
2022/05/12 00:15:19;;;;;;;14.53;4.10;;;13.80;99.90;;;;;;5126660;27;20225;-68
2022/05/12 00:17:47;;;;;;;13.90;4.50;;;13.80;99.90;;;;;;5122109;27;20239;-69
2022/05/12 00:20:18;;;;;;;7.93;4.00;;;13.90;99.90;;;;;;5130638;27;20233;-69
2022/05/12 00:22:46;;;;;;;8.30;3.93;;;13.90;99.90;;;;;;5126625;27;20229;-68
2022/05/12 00:25:21;;;;;;;10.30;4.03;;;13.90;99.90;;;;;;5125445;27;20233;-69
2022/05/12 00:27:49;;;;;;;8.03;3.57;;;13.90;99.90;;;;;;5129063;27;20272;-69
2022/05/12 00:30:19;;;;;;;6.97;3.83;;;13.90;99.90;;;;;;5129719;27;20239;-68
2022/05/12 00:32:48;;;;;;;10.33;4.30;;;13.90;99.90;;;;;;5130845;27;20232;-69
2022/05/12 00:35:17;;;;;;;7.70;3.50;;;14.00;99.90;;;;;;5130348;27;20550;-68
2022/05/12 00:37:45;;;;;;;6.90;3.90;;;14.00;99.90;;;;;;5121362;28;20232;-61
2022/05/12 00:40:16;;;;;;;7.00;3.90;;;14.00;99.90;;;;;;5124661;27;20237;-62
2022/05/12 00:43:04;;;;;;;9.00;4.03;;;14.00;99.90;;;;;;5125247;27;20704;-62
2022/05/12 00:45:36;;;;;;;8.03;3.77;;;14.00;99.90;;;;;;5129204;27;20260;-62
2022/05/12 00:48:05;;;;;;;7.70;3.60;;;14.00;99.90;;;;;;5129350;27;20244;-62
2022/05/12 00:50:37;;;;;;;6.23;3.67;;;14.00;99.90;;;;;;5130049;27;20820;-62
2022/05/12 00:53:10;;;;;;;6.87;3.43;;;14.00;99.90;;;;;;5130121;27;20362;-62
2022/05/12 00:55:44;;;;;;;5.13;3.50;;;14.00;99.90;;;;;;5130199;27;20237;-62
2022/05/12 00:58:16;;;;;;;4.63;3.90;;;14.00;99.90;;;;;;5129007;27;20302;-62
2022/05/12 01:00:46;;;;;;;6.40;3.20;;;14.00;99.90;;;;;;5123317;27;20247;-62
2022/05/12 01:03:17;;;;;;;4.83;3.20;;;14.00;99.90;;;;;;5128909;27;20267;-62
2022/05/12 01:05:46;;;;;;;5.90;3.53;;;14.00;99.90;;;;;;5122946;27;20229;-62
2022/05/12 01:08:16;;;;;;;5.87;3.80;;;14.00;99.90;;;;;;5128701;27;20625;-62
2022/05/12 01:10:47;;;;;;;4.83;3.20;;;14.00;99.90;;;;;;5127225;27;20240;-63
2022/05/12 01:13:26;;;;;;;6.50;3.20;;;14.00;99.90;;;;;;5129157;27;20232;-62
2022/05/12 01:16:00;;;;;;;3.70;3.00;;;14.00;99.90;;;;;;5133753;27;20232;-63
2022/05/12 01:18:30;;;;;;;5.87;3.47;;;14.00;99.90;;;;;;5132513;27;20232;-62
2022/05/12 01:20:59;;;;;;;3.70;2.90;;;14.00;99.90;;;;;;5133459;27;20239;-62
2022/05/12 01:23:31;;;;;;;4.67;3.17;;;14.10;99.90;;;;;;5133423;27;20233;-62
2022/05/12 01:26:02;;;;;;;3.40;2.97;;;14.00;99.90;;;;;;5130931;27;20693;-62
2022/05/12 01:28:30;;;;;;;4.23;3.00;;;14.00;99.90;;;;;;5132222;27;20233;-62
2022/05/12 01:30:59;;;;;;;4.23;3.30;;;14.00;99.90;;;;;;5132584;27;20243;-62
2022/05/12 01:33:28;;;;;;;9.80;3.23;;;13.90;99.90;;;;;;5133256;27;20599;-62
2022/05/12 01:35:57;;;;;;;5.00;3.20;;;14.00;99.90;;;;;;5133541;27;20320;-63
2022/05/12 01:38:25;;;;;;;4.67;3.20;;;14.00;99.90;;;;;;5131865;27;20240;-62
2022/05/12 01:40:55;;;;;;;6.37;3.40;;;14.00;99.90;;;;;;5133588;27;20761;-62
2022/05/12 01:43:23;;;;;;;5.30;3.07;;;14.00;99.90;;;;;;5132445;27;20231;-61
2022/05/12 01:45:52;;;;;;;6.23;3.03;;;14.00;99.90;;;;;;5132529;27;20237;-62
2022/05/12 01:48:20;;;;;;;7.60;3.30;;;14.00;99.90;;;;;;5132176;27;20242;-62
2022/05/12 01:50:52;;;;;;;5.60;3.03;;;14.00;99.90;;;;;;5133045;27;20241;-62
2022/05/12 01:53:20;;;;;;;4.87;2.60;;;14.00;99.90;;;;;;5129966;27;20688;-62
2022/05/12 01:55:49;;;;;;;6.80;3.37;;;13.90;99.90;;;;;;5133331;27;20639;-62
2022/05/12 01:58:20;;;;;;;6.53;3.50;;;13.80;99.90;;;;;;5131807;27;20229;-62
2022/05/12 02:00:48;;;;;;;7.80;4.80;;;13.70;99.90;;;;;;5132517;27;20293;-63
2022/05/12 02:03:17;;;;;;;9.53;4.30;;;13.60;99.90;;;;;;5132701;27;20221;-62
2022/05/12 02:05:46;;;;;;;8.17;3.93;;;13.50;99.90;;;;;;5132768;27;20674;-61
2022/05/12 02:08:15;;;;;;;5.93;3.10;;;13.40;99.90;;;;;;5131548;27;20792;-61
2022/05/12 02:10:47;;;;;;;6.10;2.77;;;13.20;99.90;;;;;;5130286;27;20268;-62
2022/05/12 02:13:20;;;;;;;6.93;2.53;;;13.10;99.90;;;;;;5127393;27;20251;-62
2022/05/12 02:15:48;;;;;;;4.20;1.70;;;12.90;99.90;;;;;;5129898;27;20264;-61
2022/05/12 02:18:19;;;;;;;3.63;1.40;;;12.80;99.90;;;;;;5131526;27;20240;-62
2022/05/12 02:20:48;;;;;;;2.37;1.33;;;12.70;99.90;;;;;;5132417;27;20228;-61
2022/05/12 02:23:17;;;;;;;4.40;1.50;;;12.70;99.90;;;;;;5129431;27;20285;-62
2022/05/12 02:25:45;;;;;;;5.87;1.83;;;12.60;99.90;;;;;;5130050;27;20272;-61
2022/05/12 02:28:14;;;;;;;3.13;1.40;;;12.60;99.90;;;;;;5131346;27;20241;-62
2022/05/12 02:30:43;;;;;;;3.70;1.47;;;12.50;99.90;;;;;;5128437;27;20231;-62
2022/05/12 02:33:12;;;;;;;3.20;1.60;;;12.60;99.90;;;;;;5131825;27;20312;-62
2022/05/12 02:35:40;;;;;;;3.50;1.50;;;12.50;99.90;;;;;;5131660;27;21271;-62
2022/05/12 02:38:09;;;;;;;4.87;1.70;;;12.40;99.90;;;;;;5131068;27;20240;-62
2022/05/12 02:40:38;;;;;;;3.13;1.63;;;12.30;99.90;;;;;;5131992;27;20232;-61
2022/05/12 02:43:23;;;;;;;2.70;1.70;;;12.30;99.90;;;;;;5131732;27;20236;-62
2022/05/12 02:45:54;;;;;;;3.70;1.63;;;12.30;99.90;;;;;;5125982;27;20322;-62
2022/05/12 02:48:25;;;;;;;5.90;1.70;;;12.30;99.90;;;;;;5127875;27;20239;-62
2022/05/12 02:50:53;;;;;;;2.00;1.10;;;12.30;99.90;;;;;;5131496;27;20240;-61
2022/05/12 02:53:21;;;;;;;3.27;1.30;;;12.20;99.90;;;;;;5131617;27;20242;-63
2022/05/12 02:55:56;;;;;;;5.17;1.70;;;12.20;99.90;;;;;;5131130;27;20240;-62
2022/05/12 02:58:24;;;;;;;6.63;1.90;;;12.20;99.90;;;;;;5130225;27;20224;-62
2022/05/12 03:00:54;;;;;;;4.93;1.90;;;12.20;99.90;;;;;;5130819;27;20235;-61
2022/05/12 03:03:22;;;;;;;4.27;1.50;;;12.30;99.90;;;;;;5131453;27;20248;-62
2022/05/12 03:05:52;;;;;;;2.17;1.40;;;12.30;99.90;;;;;;5131900;27;20240;-61
2022/05/12 03:08:20;;;;;;;5.33;1.40;;;12.30;99.90;;;;;;5130816;27;20236;-62
2022/05/12 03:10:51;;;;;;;3.30;1.30;;;12.30;99.90;;;;;;5131658;27;20248;-62
2022/05/12 03:13:19;;;;;;;3.33;1.40;;;12.30;99.90;;;;;;5126638;27;20236;-61
2022/05/12 03:15:47;;;;;;;3.77;1.50;;;12.30;99.90;;;;;;5131478;27;20240;-62
2022/05/12 03:18:17;;;;;;;5.53;1.70;;;12.20;99.90;;;;;;5130375;27;20727;-62
2022/05/12 03:20:45;;;;;;;3.50;1.47;;;12.20;99.90;;;;;;5128959;27;20699;-61
2022/05/12 03:23:13;;;;;;;4.57;1.60;;;12.10;99.90;;;;;;5130955;27;20240;-61
2022/05/12 03:25:43;;;;;;;8.03;1.60;;;12.10;99.90;;;;;;5123647;27;21387;-62
2022/05/12 03:28:12;;;;;;;3.10;1.50;;;12.20;99.90;;;;;;5129774;27;20767;-61
2022/05/12 03:30:40;;;;;;;3.87;1.80;;;12.20;99.90;;;;;;5130730;27;20237;-62
2022/05/12 03:33:09;;;;;;;5.33;1.93;;;12.20;99.90;;;;;;5131026;27;20257;-62
2022/05/12 03:35:38;;;;;;;5.40;1.83;;;12.20;99.90;;;;;;5129856;27;20263;-61
2022/05/12 03:38:07;;;;;;;4.13;2.10;;;12.20;99.90;;;;;;5129746;27;20251;-62
2022/05/12 03:40:35;;;;;;;5.63;1.90;;;12.20;99.90;;;;;;5130284;27;20319;-62
2022/05/12 03:43:03;;;;;;;3.10;1.80;;;12.20;99.90;;;;;;5129878;27;20274;-64
2022/05/12 03:45:33;;;;;;;4.67;2.20;;;12.20;99.90;;;;;;5128910;27;20242;-62
2022/05/12 03:48:02;;;;;;;6.83;2.50;;;12.20;99.90;;;;;;5129776;27;20277;-62
2022/05/12 03:50:30;;;;;;;6.67;2.63;;;12.20;99.90;;;;;;5130872;27;20232;-62
2022/05/12 03:53:00;;;;;;;4.33;2.30;;;12.20;99.90;;;;;;5130778;27;20251;-62
2022/05/12 03:55:29;;;;;;;5.43;2.60;;;12.10;99.90;;;;;;5127916;27;20579;-61
2022/05/12 03:57:57;;;;;;;8.23;2.97;;;12.10;99.90;;;;;;5128423;27;20244;-62
2022/05/12 04:00:28;;;;;;;6.27;2.70;;;12.10;99.90;;;;;;5130303;27;20328;-62
2022/05/12 04:02:57;;;;;;;7.23;2.97;;;12.00;99.90;;;;;;5130385;27;20629;-62
2022/05/12 04:05:25;;;;;;;6.70;3.40;;;12.00;99.90;;;;;;5130036;27;20239;-62
2022/05/12 04:07:54;;;;;;;7.57;3.00;;;12.00;99.90;;;;;;5129446;27;20277;-61
2022/05/12 04:10:24;;;;;;;5.90;2.77;;;12.00;99.90;;;;;;5128378;28;20565;-62
2022/05/12 04:12:53;;;;;;;6.67;2.70;;;12.00;99.90;;;;;;5129898;27;20684;-62
2022/05/12 04:15:22;;;;;;;7.60;2.80;;;12.10;99.90;;;;;;5127371;27;20576;-62
2022/05/12 04:17:57;;;;;;;7.70;2.70;;;12.10;99.90;;;;;;5127072;27;20731;-63
2022/05/12 04:20:27;;;;;;;6.80;2.73;;;12.10;99.90;;;;;;5127934;27;20652;-62
2022/05/12 04:22:55;;;;;;;6.93;2.30;;;12.10;99.90;;;;;;5130801;27;20240;-61
2022/05/12 04:25:25;;;;;;;8.17;2.67;;;12.10;99.90;;;;;;5129769;27;20600;-62
2022/05/12 04:27:53;;;;;;;5.60;2.47;;;12.20;99.90;;;;;;5129214;27;20772;-62
2022/05/12 04:30:24;;;;;;;5.70;2.90;;;12.30;99.90;;;;;;5130473;27;20235;-62
2022/05/12 04:32:53;;;;;;;4.70;2.50;;;12.20;99.90;;;;;;5131006;27;20240;-61
2022/05/12 04:35:21;;;;;;;5.83;2.60;;;12.30;99.90;;;;;;5129871;28;20315;-62
2022/05/12 04:37:51;;;;;;;7.20;3.10;;;12.30;99.90;;;;;;5129100;27;20944;-62
2022/05/12 04:40:21;;;;;;;6.13;2.73;;;12.30;99.90;;;;;;5125509;27;20258;-62
2022/05/12 04:42:52;;;;;;;7.63;2.73;;;12.40;99.90;;;;;;5129984;27;20318;-62
2022/05/12 04:45:22;;;;;;;5.27;2.70;;;12.40;99.90;;;;;;5128546;27;20707;-62
2022/05/12 04:47:51;;;;;;;5.90;2.93;;;12.50;99.90;;;;;;5129541;27;20241;-62
2022/05/12 04:50:22;;;;;;;7.90;2.77;;;12.50;99.90;;;;;;5131426;27;20316;-62
2022/05/12 04:52:50;;;;;;;6.50;2.77;;;12.60;99.90;;;;;;5134351;27;20637;-62
2022/05/12 04:55:19;;;;;;;5.47;2.43;;;12.60;99.90;;;;;;5134185;27;20239;-64
2022/05/12 04:57:52;;;;;;;7.70;2.70;;;12.70;99.90;;;;;;5131104;27;20235;-62
2022/05/12 05:00:23;;;;;;;4.57;2.40;;;12.70;99.90;;;;;;5133617;27;20751;-62
2022/05/12 05:02:51;;;;;;;7.50;2.67;;;12.80;99.90;;;;;;5134347;27;20240;-61
2022/05/12 05:05:22;;;;;;;6.87;2.87;;;12.70;99.90;;;;;;5133473;27;20224;-62
2022/05/12 05:07:52;;;;;;;10.53;3.00;;;12.60;99.90;;;;;;5132323;27;20236;-62
2022/05/12 05:10:20;;;;;;;6.90;2.90;;;12.60;99.90;;;;;;5133928;27;20227;-61
2022/05/12 05:12:50;;;;;;;9.40;3.07;;;12.60;99.90;;;;;;5133836;27;20344;-63
2022/05/12 05:15:19;;;;;;;5.80;2.57;;;12.70;99.90;;;;;;5131999;27;20242;-63
2022/05/12 05:17:48;;;;;;;8.93;2.93;;;12.70;99.90;;;;;;5132665;27;20288;-62
2022/05/12 05:20:19;;;;;;;8.60;3.00;;;12.80;99.90;;;;;;5133638;27;20235;-63
2022/05/12 05:22:48;;;;;;;7.17;2.63;;;12.90;99.90;;;;;;5132358;27;20571;-62
2022/05/12 05:25:17;;;;;;;5.93;2.80;;;12.90;99.90;;;;;;5131908;27;20276;-62
2022/05/12 05:27:46;;;;;;;8.13;2.60;;;12.90;99.90;;;;;;5124411;27;20220;-62
2022/05/12 05:30:18;;;;;;;5.47;2.17;;;12.90;99.90;;;;;;5133081;27;20726;-62
2022/05/12 05:32:46;;;;;;;5.73;2.70;;;12.90;99.90;;;;;;5129445;27;20236;-62
2022/05/12 05:35:15;;;;;;;6.73;2.83;;;12.90;99.90;;;;;;5133673;27;20238;-62
2022/05/12 05:37:44;;;;;;;6.20;2.33;;;13.00;99.90;;;;;;5131434;27;20289;-62
2022/05/12 05:40:14;;;;;;;8.60;3.10;;;12.90;99.90;;;;;;5133452;27;20266;-62
2022/05/12 05:42:44;;;;;;;6.80;2.37;;;13.00;99.90;;;;;;5133267;27;20270;-62
2022/05/12 05:45:15;;;;;;;5.10;2.10;;;13.00;99.90;;;;;;5132200;27;20259;-62
2022/05/12 05:47:47;;;;;;;8.13;2.50;;;13.00;99.90;;;;;;5123641;27;20241;-62
2022/05/12 05:50:17;;;;;;;7.40;2.80;;;13.10;99.90;;;;;;5133289;27;20239;-62
2022/05/12 05:55:32;;;;;;;5.00;2.27;;;13.20;99.90;;;;;;5129756;27;20229;-64
2022/05/12 05:58:00;;;;;;;6.27;2.40;;;13.30;99.90;;;;;;5103877;28;20367;-62
2022/05/12 06:00:31;;;;;;;4.43;2.30;;;13.30;99.90;;;;;;5110323;27;20360;-64
2022/05/12 06:03:01;;;;;;;9.37;2.37;;;13.40;99.90;;;;;;5112078;27;20233;-62
2022/05/12 06:05:29;;;;;;;5.23;2.37;;;13.50;99.90;;;;;;5111839;27;20323;-62
2022/05/12 06:07:58;;;;;;;6.17;2.07;;;13.70;99.90;;;;;;5111831;27;20241;-62
2022/05/12 06:10:26;;;;;;;6.53;2.33;;;13.90;99.90;;;;;;5112305;27;20712;-62
2022/05/12 06:12:54;;;;;;;6.73;2.20;;;14.00;99.90;;;;;;5111705;27;20653;-62
2022/05/12 06:15:23;;;;;;;6.20;2.50;;;14.20;99.90;;;;;;5111413;27;20254;-62
2022/05/12 06:17:51;;;;;;;6.07;2.53;;;14.40;99.90;;;;;;5131431;27;20245;-62
2022/05/12 06:20:23;;;;;;;5.50;2.67;;;14.30;99.90;;;;;;5131763;27;20233;-62
2022/05/12 06:22:52;;;;;;;6.20;2.60;;;14.50;99.90;;;;;;5132131;27;20758;-62
2022/05/12 06:25:20;;;;;;;5.47;3.20;;;14.70;99.90;;;;;;5132326;27;20316;-65
2022/05/12 06:27:51;;;;;;;6.80;4.00;;;14.70;99.90;;;;;;5129993;27;20953;-63
2022/05/12 06:30:20;;;;;;;6.60;4.20;;;14.80;99.90;;;;;;5131211;27;20239;-62
2022/05/12 06:32:51;;;;;;;5.93;4.23;;;14.90;99.90;;;;;;5132340;27;20584;-64
2022/05/12 06:35:20;;;;;;;5.50;4.70;;;14.90;99.90;;;;;;5132266;27;21390;-62
2022/05/12 06:37:50;;;;;;;8.77;4.17;;;14.90;99.90;;;;;;5123711;27;20233;-62
2022/05/12 06:40:19;;;;;;;6.87;4.13;;;15.20;99.90;;;;;;5132239;27;20825;-62
2022/05/12 06:42:51;;;;;;;5.20;3.40;;;15.20;99.90;;;;;;5130268;27;20225;-62
2022/05/12 06:45:21;;;;;;;4.90;3.27;;;15.20;99.90;;;;;;5126962;27;20654;-63
2022/05/12 06:47:52;;;;;;;4.70;3.17;;;15.50;99.90;;;;;;5129973;27;20243;-62
2022/05/12 06:50:23;;;;;;;7.67;3.17;;;15.50;99.90;;;;;;5129020;27;20241;-62
2022/05/12 06:52:53;;;;;;;7.77;3.10;;;15.80;99.90;;;;;;5131945;27;20741;-62
2022/05/12 06:55:22;;;;;;;5.40;2.90;;;15.90;99.90;;;;;;5127624;27;20285;-62
2022/05/12 06:57:50;;;;;;;5.60;2.47;;;16.00;99.90;;;;;;5130967;27;20720;-63
2022/05/12 07:00:20;;;;;;;4.43;2.67;;;16.00;99.90;;;;;;5128676;27;20285;-63
2022/05/12 07:02:49;;;;;;;7.20;2.70;;;16.20;99.90;;;;;;5124183;27;20688;-62
2022/05/12 07:05:20;;;;;;;5.23;2.20;;;16.50;99.90;;;;;;5131244;27;20241;-62
2022/05/12 07:07:48;;;;;;;3.50;2.20;;;16.50;99.90;;;;;;5125981;27;20245;-62
2022/05/12 07:10:20;;;;;;;5.73;2.47;;;16.50;99.90;;;;;;5131276;27;20264;-63
2022/05/12 07:12:48;;;;;;;5.43;2.43;;;16.40;99.90;;;;;;5131139;27;20720;-63
2022/05/12 07:15:16;;;;;;;3.67;2.37;;;16.70;99.90;;;;;;5131499;27;20767;-63
2022/05/12 07:17:45;;;;;;;5.30;2.40;;;16.90;99.90;;;;;;5122291;27;20298;-62
2022/05/12 07:28:36;;;;;;;5.47;2.10;;;17.70;99.90;;;;;;5129289;27;20788;-62
2022/05/12 07:31:05;;;;;;;6.23;2.23;;;17.70;99.90;;;;;;5126142;27;20308;-63
2022/05/12 07:33:39;;;;;;;5.37;2.03;;;18.10;99.90;;;;;;5131208;27;20270;-62
2022/05/12 07:36:11;;;;;;;4.37;1.80;;;18.10;99.90;;;;;;5131352;27;20740;-63
2022/05/12 07:38:39;;;;;;;4.73;2.20;;;18.10;99.90;;;;;;5129761;27;20230;-63
2022/05/12 07:41:12;;;;;;;4.70;2.33;;;17.90;99.90;;;;;;5130962;27;20297;-62
2022/05/12 07:43:42;;;;;;;6.20;2.20;;;18.00;99.90;;;;;;5125436;27;20273;-63
2022/05/12 07:46:12;;;;;;;4.63;2.20;;;18.10;99.90;;;;;;5131089;27;20234;-63
2022/05/12 07:48:40;;;;;;;6.20;1.80;;;18.40;99.90;;;;;;5129281;27;20218;-63
2022/05/12 07:51:09;;;;;;;4.27;1.70;;;18.90;99.90;;;;;;5130959;27;20602;-63
2022/05/12 07:53:37;;;;;;;4.50;1.57;;;19.20;99.90;;;;;;5130615;27;20234;-63
2022/05/12 07:56:08;;;;;;;2.97;1.80;;;19.20;99.90;;;;;;5130806;27;20234;-63
2022/05/12 07:58:37;;;;;;;5.50;1.70;;;19.10;99.90;;;;;;5129254;27;20239;-65
2022/05/12 08:01:06;;;;;;;5.00;1.67;;;19.40;99.90;;;;;;5130570;27;20238;-64
2022/05/12 08:03:35;;;;;;;3.73;1.50;;;19.70;99.90;;;;;;5130383;27;20263;-63
2022/05/12 08:06:03;;;;;;;4.23;1.30;;;19.90;99.90;;;;;;5130405;27;20238;-63
2022/05/12 08:08:32;;;;;;;3.27;1.30;;;20.20;99.90;;;;;;5128927;27;20293;-63
2022/05/12 08:11:00;;;;;;;3.87;1.30;;;20.20;99.90;;;;;;5130992;27;20710;-64
2022/05/12 08:13:29;;;;;;;7.50;1.70;;;20.20;99.90;;;;;;5130661;27;20318;-63
2022/05/12 08:15:58;;;;;;;3.80;1.50;;;20.20;99.90;;;;;;5130585;27;20658;-63
2022/05/12 08:18:27;;;;;;;3.97;1.30;;;20.50;99.90;;;;;;5129341;27;20232;-63
2022/05/12 08:20:55;;;;;;;4.10;1.37;;;20.80;99.90;;;;;;5129680;27;20232;-63
2022/05/12 08:23:24;;;;;;;5.57;1.53;;;20.90;99.90;;;;;;5132464;27;20256;-63
2022/05/12 08:25:52;;;;;;;3.90;1.20;;;20.50;99.90;;;;;;5134712;27;20239;-63
2022/05/12 08:28:27;;;;;;;3.13;1.30;;;20.40;99.90;;;;;;5132153;27;20273;-63
2022/05/12 08:30:57;;;;;;;6.67;1.60;;;20.20;99.90;;;;;;5134590;27;20235;-63
2022/05/12 08:33:25;;;;;;;2.80;1.30;;;20.20;99.90;;;;;;5134629;27;20239;-64
2022/05/12 08:35:53;;;;;;;5.40;1.40;;;20.30;99.90;;;;;;5134721;27;20587;-63
2022/05/12 08:38:22;;;;;;;4.83;1.43;;;20.10;99.90;;;;;;5133354;27;20716;-63
2022/05/12 08:41:01;;;;;;;4.27;1.40;;;20.10;99.90;;;;;;5134552;27;20262;-63
2022/05/12 08:43:36;;;;;;;7.23;1.57;;;20.50;99.90;;;;;;5132008;27;20266;-64
2022/05/12 08:46:09;;;;;;;4.27;1.43;;;20.70;99.90;;;;;;5134397;27;20234;-64
2022/05/12 08:48:41;;;;;;;3.93;1.20;;;20.50;99.90;;;;;;5133084;27;20768;-64
2022/05/12 08:51:13;;;;;;;4.47;1.47;;;19.80;99.90;;;;;;5129754;27;20236;-64
2022/05/12 08:53:47;;;;;;;4.80;1.20;;;19.80;99.90;;;;;;5127316;27;20252;-65
2022/05/12 08:56:18;;;;;;;5.90;1.50;;;20.10;99.90;;;;;;5131198;27;20707;-64
2022/05/12 08:58:49;;;;;;;4.10;1.23;;;19.90;99.90;;;;;;5131166;27;20235;-64
2022/05/12 09:01:22;;;;;;;4.47;1.60;;;19.20;99.90;;;;;;5133730;27;20729;-65
2022/05/12 09:04:04;;;;;;;3.87;1.30;;;18.90;99.90;;;;;;5133724;27;20639;-64
2022/05/12 09:06:38;;;;;;;4.63;1.20;;;18.70;99.90;;;;;;5132414;27;20568;-64
2022/05/12 09:09:12;;;;;;;3.47;1.13;;;18.70;99.90;;;;;;5124415;27;20679;-64
2022/05/12 09:11:46;;;;;;;2.93;1.10;;;19.50;99.90;;;;;;5124559;27;20272;-64
2022/05/12 09:14:22;;;;;;;5.47;1.63;;;20.10;99.90;;;;;;5126070;27;20247;-64
2022/05/12 09:16:53;;;;;;;2.37;1.00;;;19.60;99.90;;;;;;5125205;27;20329;-64
2022/05/12 09:19:22;;;;;;;4.93;1.57;;;19.30;99.90;;;;;;5124109;27;20738;-64
2022/05/12 09:21:51;;;;;;;5.67;1.30;;;19.50;99.90;;;;;;5124425;28;20247;-64
2022/05/12 09:24:19;;;;;;;3.57;1.20;;;19.40;99.90;;;;;;5124887;27;20236;-64
2022/05/12 09:26:49;;;;;;;3.73;1.00;;;19.10;99.90;;;;;;5124012;28;20717;-65
2022/05/12 09:29:21;;;;;;;4.20;1.10;;;19.10;99.90;;;;;;5123848;27;20330;-65
2022/05/12 09:31:53;;;;;;;4.37;1.30;;;19.20;99.90;;;;;;5122742;27;20275;-64
2022/05/12 09:34:26;;;;;;;5.03;1.37;;;19.30;99.90;;;;;;5122680;27;20316;-65
2022/05/12 09:36:55;;;;;;;4.10;1.20;;;19.10;99.90;;;;;;5122934;27;20240;-64
2022/05/12 09:39:33;;;;;;;4.80;1.20;;;19.30;99.90;;;;;;5123057;27;20335;-64
2022/05/12 09:42:02;;;;;;;2.93;0.90;;;19.30;99.90;;;;;;5129159;27;20306;-65
2022/05/12 09:44:32;;;;;;;3.67;1.00;;;19.30;99.90;;;;;;5131617;27;20735;-64
2022/05/12 09:47:07;;;;;;;3.77;1.07;;;19.80;99.90;;;;;;5133038;27;20244;-64
2022/05/12 09:49:39;;;;;;;3.70;0.97;;;20.70;99.90;;;;;;5132351;27;20334;-64
2022/05/12 09:52:31;;;;;;;4.13;1.00;;;21.40;99.90;;;;;;5131921;27;20697;-67
2022/05/12 09:55:15;;;;;;;2.23;0.90;;;21.70;99.90;;;;;;5126681;27;20697;-64
2022/05/12 09:57:50;;;;;;;4.13;1.20;;;21.10;99.90;;;;;;5132218;27;20715;-64
2022/05/12 10:00:34;;;;;;;2.93;1.20;;;20.40;99.90;;;;;;5129389;27;20262;-64
2022/05/12 10:08:45;;;;;;;4.53;1.17;;;19.00;99.90;;;;;;5132403;28;20316;-64
2022/05/12 10:11:15;;;;;;;3.27;1.30;;;18.80;99.90;;;;;;5132474;28;20237;-64
2022/05/12 10:13:50;;;;;;;3.07;1.10;;;18.50;99.90;;;;;;5130701;28;20238;-64
2022/05/12 10:16:21;;;;;;;3.23;1.17;;;18.90;99.90;;;;;;5086268;27;1136128;-64
2022/05/12 10:18:55;;;;;;;5.23;1.17;;;20.20;99.90;;;;;;5123199;27;20236;-64
2022/05/12 10:21:28;;;;;;;2.73;1.30;;;21.20;99.90;;;;;;5123442;27;20798;-66
2022/05/12 10:24:07;;;;;;;3.13;1.00;;;22.10;99.90;;;;;;5123260;27;20240;-65
2022/05/12 10:26:39;;;;;;;4.97;1.00;;;22.60;99.90;;;;;;5123238;27;20236;-65
2022/05/12 10:29:28;;;;;;;2.37;0.80;;;23.10;99.90;;;;;;5122459;27;20240;-64
2022/05/12 10:32:06;;;;;;;2.13;0.80;;;23.60;99.90;;;;;;5123342;27;20243;-64
2022/05/12 10:34:45;;;;;;;4.10;1.10;;;23.80;99.90;;;;;;5122441;27;20240;-64
2022/05/12 10:37:35;;;;;;;3.07;1.17;;;23.60;99.90;;;;;;5123172;27;21422;-66
2022/05/12 10:40:12;;;;;;;2.20;0.80;;;23.40;99.90;;;;;;5123250;27;20289;-64
2022/05/12 10:42:50;;;;;;;3.17;1.17;;;23.00;99.90;;;;;;5122132;27;20781;-65
2022/05/12 10:45:25;;;;;;;3.53;0.97;;;22.30;99.90;;;;;;5122124;27;20237;-64
2022/05/12 10:48:23;;;;;;;5.10;1.07;;;21.40;99.90;;;;;;5122634;27;20743;-64
2022/05/12 10:50:59;;;;;;;3.27;0.70;;;20.90;99.90;;;;;;5121880;27;20911;-65
2022/05/12 10:53:48;;;;;;;4.17;1.00;;;21.00;99.90;;;;;;5122224;27;20316;-66
2022/05/12 10:56:28;;;;;;;2.90;0.90;;;21.80;99.90;;;;;;5122221;27;20249;-66
2022/05/12 10:59:05;;;;;;;5.10;1.20;;;22.10;99.90;;;;;;5123027;27;20553;-64
2022/05/12 11:01:36;;;;;;;3.40;1.00;;;22.20;99.90;;;;;;5132269;27;20315;-64
2022/05/12 11:04:10;;;;;;;4.57;1.10;;;22.60;99.90;;;;;;5130134;27;20703;-64
2022/05/12 11:06:43;;;;;;;2.40;1.20;;;21.90;99.90;;;;;;5131428;27;20232;-64
2022/05/12 11:09:16;;;;;;;4.07;1.10;;;21.50;99.90;;;;;;5131575;27;20645;-65
2022/05/12 11:11:48;;;;;;;1.70;0.97;;;21.80;99.90;;;;;;5120078;27;20629;-64
2022/05/12 11:14:21;;;;;;;1.63;1.10;;;21.60;99.90;;;;;;5121578;27;20233;-66
2022/05/12 11:16:56;;;;;;;3.57;1.10;;;21.20;99.90;;;;;;5121802;27;20240;-65
2022/05/12 11:19:26;;;;;;;2.53;0.77;;;21.10;99.90;;;;;;5122422;27;20244;-65
2022/05/12 11:22:07;;;;;;;2.57;0.80;;;21.60;99.90;;;;;;5122454;27;20239;-65
2022/05/12 11:24:44;;;;;;;4.30;1.00;;;22.10;99.90;;;;;;5121702;27;20257;-64
2022/05/12 11:27:33;;;;;;;2.43;0.87;;;22.60;99.90;;;;;;5122364;27;20873;-65
2022/05/12 11:30:26;;;;;;;2.83;0.90;;;22.20;99.90;;;;;;5122776;27;20233;-66
2022/05/12 11:33:03;;;;;;;2.57;1.10;;;21.50;99.90;;;;;;5120978;27;20359;-65
2022/05/12 11:35:37;;;;;;;2.97;1.00;;;21.10;99.90;;;;;;5121833;27;21037;-65
2022/05/12 11:38:10;;;;;;;2.27;1.07;;;20.50;99.90;;;;;;5121851;27;20256;-65
2022/05/12 11:40:53;;;;;;;4.33;1.40;;;20.70;99.90;;;;;;5122070;27;20252;-64
2022/05/12 11:46:54;;;;;;;3.40;1.20;;;22.10;99.90;;;;;;5117785;27;20232;-64
2022/05/12 11:49:51;;;;;;;2.60;1.00;;;22.50;99.90;;;;;;5106270;27;20281;-65
2022/05/12 11:52:34;;;;;;;2.13;0.80;;;23.50;99.90;;;;;;5120134;27;20290;-66
2022/05/12 11:55:08;;;;;;;3.07;1.00;;;23.80;98.50;;;;;;5121971;27;20700;-65
2022/05/12 11:57:41;;;;;;;5.10;1.07;;;23.60;96.80;;;;;;5121476;27;20272;-65
2022/05/12 12:00:12;;;;;;;1.73;0.60;;;23.20;97.90;;;;;;5121985;27;20276;-66
2022/05/12 12:02:45;;;;;;;2.03;0.90;;;22.50;98.10;;;;;;5120847;27;20337;-65
2022/05/12 12:05:31;;;;;;;4.23;1.20;;;21.90;99.00;;;;;;5121936;27;20240;-66
2022/05/12 12:08:03;;;;;;;1.97;1.03;;;22.00;99.90;;;;;;5121998;27;21033;-64
2022/05/12 12:10:36;;;;;;;1.90;0.80;;;22.10;99.80;;;;;;5121741;27;20245;-66
2022/05/12 12:13:07;;;;;;;2.67;0.80;;;21.60;99.10;;;;;;5120185;27;20237;-67
2022/05/12 12:15:42;;;;;;;2.07;0.80;;;20.90;99.90;;;;;;5121158;27;20229;-64
2022/05/12 12:18:47;;;;;;;3.60;0.97;;;20.80;99.90;;;;;;5121641;27;20236;-64
2022/05/12 12:21:38;;;;;;;2.23;0.80;;;20.90;99.90;;;;;;5121386;27;20231;-65
2022/05/12 12:24:16;;;;;;;2.50;1.00;;;21.30;99.90;;;;;;5120322;27;20649;-65
2022/05/12 12:26:50;;;;;;;2.27;0.70;;;21.50;99.90;;;;;;5121334;27;20264;-65
2022/05/12 12:29:20;;;;;;;2.83;0.90;;;21.70;99.70;;;;;;5121659;27;20240;-66
2022/05/12 12:31:51;;;;;;;3.57;1.30;;;21.90;99.90;;;;;;5120755;28;20804;-64
2022/05/12 12:34:21;;;;;;;3.43;1.10;;;22.20;99.90;;;;;;5120003;27;20271;-64
2022/05/12 12:37:01;;;;;;;1.97;0.80;;;22.30;99.90;;;;;;5121082;27;20320;-65
2022/05/12 12:39:44;;;;;;;2.93;1.10;;;22.30;98.60;;;;;;5121495;27;20661;-66
2022/05/12 12:42:28;;;;;;;1.93;0.70;;;21.80;98.60;;;;;;5119999;27;20490;-65
2022/05/12 12:45:00;;;;;;;2.03;0.70;;;21.10;99.40;;;;;;5119926;27;20341;-64
2022/05/12 12:47:38;;;;;;;3.30;0.93;;;20.80;99.60;;;;;;5121231;27;20316;-64
2022/05/12 12:50:32;;;;;;;3.73;1.00;;;20.80;99.90;;;;;;5120576;27;20288;-65
2022/05/12 12:53:00;;;;;;;3.03;1.10;;;20.80;99.90;;;;;;5120279;27;20696;-65
2022/05/12 12:58:36;;;;;;;3.57;1.10;;;21.10;99.90;;;;;;5077058;27;20248;-65
2022/05/12 13:01:13;;;;;;;1.30;0.70;;;21.00;99.90;;;;;;5117931;27;20244;-64
2022/05/12 13:03:46;;;;;;;3.00;0.97;;;21.00;99.90;;;;;;5120023;27;20297;-66
2022/05/12 13:06:17;;;;;;;2.03;1.07;;;21.00;99.90;;;;;;5121666;27;20272;-66
2022/05/12 13:08:57;;;;;;;1.67;0.63;;;21.10;99.90;;;;;;5121336;27;20239;-65
2022/05/12 13:11:25;;;;;;;4.47;1.10;;;21.50;99.90;;;;;;5124810;27;20224;-64
2022/05/12 13:13:56;;;;;;;2.43;1.10;;;21.60;99.90;;;;;;5123737;27;20225;-65
2022/05/12 13:16:27;;;;;;;2.60;0.90;;;21.30;99.90;;;;;;5124699;27;20229;-64
2022/05/12 13:18:56;;;;;;;2.80;1.37;;;21.00;99.90;;;;;;5124914;27;20245;-65
2022/05/12 13:21:29;;;;;;;2.60;1.13;;;20.90;99.90;;;;;;5124841;27;20232;-64
2022/05/12 13:24:00;;;;;;;5.30;1.43;;;20.60;99.90;;;;;;5124063;27;20750;-66
2022/05/12 13:26:30;;;;;;;3.33;1.27;;;20.30;99.90;;;;;;5125177;27;20245;-65
2022/05/12 13:29:01;;;;;;;3.27;1.20;;;20.00;99.90;;;;;;5124814;27;20251;-65
2022/05/12 13:31:41;;;;;;;2.97;1.23;;;19.80;99.90;;;;;;5124757;27;20289;-66